createdAt,value
2018-06-24T00:00:45.155Z,3.73
2018-06-24T00:03:14.476Z,3.00
2018-06-24T00:05:43.767Z,3.07
2018-06-24T00:08:12.921Z,3.93
2018-06-24T00:10:43.355Z,3.80
2018-06-24T00:13:12.589Z,2.60
2018-06-24T00:15:42.079Z,2.93
2018-06-24T00:18:11.589Z,3.13
2018-06-24T00:20:41.030Z,2.97
2018-06-24T00:23:10.483Z,2.87
2018-06-24T00:25:39.961Z,3.00
2018-06-24T00:28:09.606Z,3.17
2018-06-24T00:30:39.038Z,2.90
2018-06-24T00:33:08.575Z,3.60
2018-06-24T00:35:38.429Z,2.60
2018-06-24T00:38:07.869Z,2.60
2018-06-24T00:40:37.138Z,3.00
2018-06-24T00:43:06.552Z,2.90
2018-06-24T00:45:35.890Z,2.53
2018-06-24T00:48:05.238Z,3.43
2018-06-24T00:50:34.696Z,3.30
2018-06-24T00:53:04.305Z,2.93
2018-06-24T00:55:33.698Z,3.20
2018-06-24T00:58:03.227Z,3.63
2018-06-24T01:00:32.564Z,3.20
2018-06-24T01:03:01.940Z,3.60
2018-06-24T01:05:31.288Z,3.10
2018-06-24T01:08:00.580Z,2.50
2018-06-24T01:10:29.882Z,3.00
2018-06-24T01:12:59.326Z,3.00
2018-06-24T01:15:28.923Z,3.00
2018-06-24T01:17:58.580Z,3.67
2018-06-24T01:20:27.961Z,3.37
2018-06-24T01:22:57.719Z,4.60
2018-06-24T01:25:27.231Z,3.87
2018-06-24T01:27:56.948Z,4.37
2018-06-24T01:30:26.477Z,3.73
2018-06-24T01:32:56.898Z,3.57
2018-06-24T01:35:26.154Z,4.03
2018-06-24T01:37:55.612Z,3.23
2018-06-24T01:40:25.007Z,3.30
2018-06-24T01:42:54.255Z,3.47
2018-06-24T01:45:23.464Z,3.80
2018-06-24T01:47:53.214Z,3.90
2018-06-24T01:50:22.549Z,4.13
2018-06-24T01:52:51.934Z,3.57
2018-06-24T01:55:21.794Z,4.10
2018-06-24T01:57:51.317Z,3.80
2018-06-24T02:00:20.731Z,4.20
2018-06-24T02:02:50.015Z,3.33
2018-06-24T02:05:19.364Z,3.10
2018-06-24T02:07:48.600Z,3.37
2018-06-24T02:10:18.075Z,3.63
2018-06-24T02:12:47.557Z,3.67
2018-06-24T02:15:17.034Z,3.70
2018-06-24T02:17:46.526Z,3.20
2018-06-24T02:20:15.896Z,3.67
2018-06-24T02:22:45.474Z,4.03
2018-06-24T02:25:14.962Z,3.27
2018-06-24T02:27:44.401Z,2.97
2018-06-24T02:30:13.637Z,3.00
2018-06-24T02:32:43.166Z,4.33
2018-06-24T02:35:12.688Z,3.53
2018-06-24T02:37:43.303Z,3.23
2018-06-24T02:40:12.601Z,3.37
2018-06-24T02:42:42.257Z,3.70
2018-06-24T02:45:11.766Z,3.27
2018-06-24T02:47:41.162Z,3.20
2018-06-24T02:50:10.504Z,2.60
2018-06-24T02:52:39.978Z,2.77
2018-06-24T02:55:09.893Z,3.13
2018-06-24T02:57:39.246Z,3.23
2018-06-24T03:00:08.580Z,2.60
2018-06-24T03:02:37.846Z,2.97
2018-06-24T03:05:07.240Z,2.93
2018-06-24T03:07:36.820Z,3.80
2018-06-24T03:10:06.522Z,2.50
2018-06-24T03:12:35.930Z,2.47
2018-06-24T03:15:05.398Z,2.60
2018-06-24T03:17:34.877Z,2.33
2018-06-24T03:20:08.322Z,2.80
2018-06-24T03:22:37.729Z,2.63
2018-06-24T03:25:10.027Z,2.10
2018-06-24T03:27:39.343Z,1.93
2018-06-24T03:30:08.808Z,2.40
2018-06-24T03:32:38.326Z,2.20
2018-06-24T03:35:08.607Z,3.10
2018-06-24T03:37:44.451Z,2.30
2018-06-24T03:40:13.973Z,2.77
2018-06-24T03:42:43.477Z,3.00
2018-06-24T03:45:12.823Z,2.50
2018-06-24T03:47:42.301Z,2.53
2018-06-24T03:50:11.872Z,2.40
2018-06-24T03:52:41.284Z,2.80
2018-06-24T03:55:11.782Z,2.60
2018-06-24T03:57:41.226Z,2.90
2018-06-24T04:00:11.803Z,2.57
2018-06-24T04:02:41.040Z,3.20
2018-06-24T04:05:11.008Z,3.43
2018-06-24T04:07:40.344Z,2.70
2018-06-24T04:10:09.721Z,3.23
2018-06-24T04:12:39.143Z,2.73
2018-06-24T04:15:08.614Z,2.83
2018-06-24T04:17:38.084Z,2.80
2018-06-24T04:20:08.455Z,4.43
2018-06-24T04:22:37.839Z,3.27
2018-06-24T04:25:07.236Z,3.03
2018-06-24T04:27:36.736Z,2.90
2018-06-24T04:30:07.166Z,3.13
2018-06-24T04:32:37.582Z,3.20
2018-06-24T04:35:08.438Z,2.87
2018-06-24T04:37:38.516Z,2.70
2018-06-24T04:40:07.943Z,2.40
2018-06-24T04:42:37.367Z,2.43
2018-06-24T04:45:07.556Z,2.60
2018-06-24T04:47:36.944Z,2.50
2018-06-24T04:50:06.463Z,2.60
2018-06-24T04:52:36.169Z,2.70
2018-06-24T04:55:05.568Z,2.60
2018-06-24T04:57:35.037Z,2.53
2018-06-24T05:00:04.537Z,2.60
2018-06-24T05:02:33.964Z,3.00
2018-06-24T05:05:05.668Z,3.00
2018-06-24T05:07:35.050Z,2.40
2018-06-24T05:10:04.601Z,3.73
2018-06-24T05:12:34.031Z,3.53
2018-06-24T05:15:03.305Z,3.23
2018-06-24T05:17:32.579Z,3.67
2018-06-24T05:20:02.773Z,2.77
2018-06-24T05:22:32.275Z,3.07
2018-06-24T05:25:01.898Z,2.57
2018-06-24T05:27:31.231Z,2.20
2018-06-24T05:30:01.182Z,2.47
2018-06-24T05:32:30.433Z,2.73
2018-06-24T05:35:01.091Z,2.10
2018-06-24T05:37:30.952Z,2.43
2018-06-24T05:40:01.285Z,2.33
2018-06-24T05:42:30.633Z,2.93
2018-06-24T05:45:00.225Z,2.40
2018-06-24T05:47:29.697Z,3.10
2018-06-24T05:50:00.158Z,2.37
2018-06-24T05:52:29.931Z,2.47
2018-06-24T05:54:59.204Z,2.27
2018-06-24T05:57:29.991Z,3.20
2018-06-24T05:59:59.269Z,1.73
2018-06-24T06:02:29.336Z,2.10
2018-06-24T06:04:58.724Z,1.10
2018-06-24T06:07:28.141Z,0.70
2018-06-24T06:09:57.458Z,1.23
2018-06-24T06:12:26.922Z,1.73
2018-06-24T06:14:56.266Z,3.57
2018-06-24T06:17:25.559Z,3.40
2018-06-24T06:19:55.460Z,3.43
2018-06-24T06:22:25.194Z,3.37
2018-06-24T06:24:55.956Z,3.70
2018-06-24T06:27:26.439Z,3.17
2018-06-24T06:29:55.771Z,5.10
2018-06-24T06:32:25.300Z,3.40
2018-06-24T06:34:54.678Z,2.93
2018-06-24T06:37:25.055Z,1.97
2018-06-24T06:39:54.485Z,1.90
2018-06-24T06:42:23.808Z,1.33
2018-06-24T06:44:53.506Z,1.27
2018-06-24T06:47:23.763Z,1.77
2018-06-24T06:49:54.218Z,1.50
2018-06-24T06:52:23.600Z,1.63
2018-06-24T06:54:52.956Z,1.03
2018-06-24T06:57:22.247Z,1.20
2018-06-24T06:59:51.673Z,1.10
2018-06-24T07:02:21.154Z,1.27
2018-06-24T07:04:51.198Z,1.40
2018-06-24T07:07:20.634Z,1.00
2018-06-24T07:09:49.980Z,1.37
2018-06-24T07:12:19.551Z,1.20
2018-06-24T07:14:49.889Z,1.77
2018-06-24T07:17:19.297Z,1.23
2018-06-24T07:19:48.899Z,1.40
2018-06-24T07:22:21.295Z,1.07
2018-06-24T07:24:51.557Z,0.97
2018-06-24T07:27:22.034Z,0.83
2018-06-24T07:29:51.508Z,1.00
2018-06-24T07:32:20.997Z,1.00
2018-06-24T07:34:50.558Z,1.13
2018-06-24T07:37:19.980Z,0.90
2018-06-24T07:39:49.577Z,1.00
2018-06-24T07:42:19.528Z,1.10
2018-06-24T07:44:49.213Z,1.27
2018-06-24T07:47:19.362Z,1.07
2018-06-24T07:49:49.017Z,1.40
2018-06-24T07:52:18.484Z,1.17
2018-06-24T07:54:48.160Z,1.40
2018-06-24T07:57:17.539Z,1.13
2018-06-24T07:59:46.856Z,1.00
2018-06-24T08:02:17.548Z,1.40
2018-06-24T08:04:47.009Z,1.90
2018-06-24T08:07:16.604Z,1.20
2018-06-24T08:09:47.077Z,1.27
2018-06-24T08:12:17.210Z,1.70
2018-06-24T08:14:46.920Z,1.50
2018-06-24T08:17:16.319Z,1.07
2018-06-24T08:19:46.454Z,0.93
2018-06-24T08:22:17.970Z,0.90
2018-06-24T08:24:47.323Z,1.60
2018-06-24T08:27:16.769Z,1.10
2018-06-24T08:29:46.228Z,1.27
2018-06-24T08:32:15.659Z,1.30
2018-06-24T08:34:44.956Z,0.87
2018-06-24T08:37:14.324Z,1.33
2018-06-24T08:39:45.650Z,1.10
2018-06-24T08:42:15.929Z,1.20
2018-06-24T08:44:45.217Z,1.03
2018-06-24T08:47:14.502Z,1.20
2018-06-24T08:49:44.443Z,1.27
2018-06-24T08:52:15.029Z,0.90
2018-06-24T08:54:44.420Z,1.20
2018-06-24T08:57:15.360Z,1.47
2018-06-24T08:59:44.921Z,1.90
2018-06-24T09:02:15.136Z,1.97
2018-06-24T09:04:44.569Z,1.50
2018-06-24T09:07:14.012Z,1.77
2018-06-24T09:09:44.649Z,1.80
2018-06-24T09:12:13.995Z,2.17
2018-06-24T09:14:44.205Z,1.80
2018-06-24T09:17:15.750Z,1.80
2018-06-24T09:19:45.201Z,1.97
2018-06-24T09:22:14.638Z,2.10
2018-06-24T09:24:45.325Z,1.77
2018-06-24T09:27:14.766Z,2.40
2018-06-24T09:29:45.089Z,2.40
2018-06-24T09:32:14.573Z,2.10
2018-06-24T09:34:44.631Z,2.27
2018-06-24T09:37:14.014Z,2.50
2018-06-24T09:39:43.514Z,4.23
2018-06-24T09:42:14.166Z,2.30
2018-06-24T09:44:44.752Z,2.60
2018-06-24T09:47:14.239Z,2.50
2018-06-24T09:49:44.462Z,3.27
2018-06-24T09:52:14.742Z,2.63
2018-06-24T09:54:44.402Z,2.23
2018-06-24T09:57:14.926Z,3.20
2018-06-24T09:59:44.200Z,2.20
2018-06-24T10:02:13.570Z,3.23
2018-06-24T10:04:43.078Z,3.20
2018-06-24T10:07:12.490Z,2.63
2018-06-24T10:09:41.842Z,2.17
2018-06-24T10:12:12.153Z,2.20
2018-06-24T10:14:42.653Z,2.50
2018-06-24T10:17:13.830Z,2.17
2018-06-24T10:19:43.095Z,2.90
2018-06-24T10:22:13.412Z,2.30
2018-06-24T10:24:43.225Z,2.47
2018-06-24T10:27:15.079Z,2.47
2018-06-24T10:29:45.059Z,2.50
2018-06-24T10:32:15.129Z,3.00
2018-06-24T10:34:46.566Z,4.03
2018-06-24T10:37:18.992Z,3.20
2018-06-24T10:39:49.259Z,2.00
2018-06-24T10:42:20.063Z,3.17
2018-06-24T10:44:51.607Z,2.63
2018-06-24T10:47:22.050Z,2.83
2018-06-24T10:49:52.355Z,2.40
2018-06-24T10:52:21.868Z,2.60
2018-06-24T10:54:52.362Z,1.90
2018-06-24T10:57:21.757Z,1.97
2018-06-24T10:59:51.913Z,2.20
2018-06-24T11:02:23.364Z,2.10
2018-06-24T11:04:54.343Z,3.03
2018-06-24T11:07:23.691Z,2.33
2018-06-24T11:09:54.494Z,2.30
2018-06-24T11:12:24.634Z,2.33
2018-06-24T11:14:56.400Z,1.70
2018-06-24T11:17:26.347Z,2.13
2018-06-24T11:19:55.972Z,1.70
2018-06-24T11:22:26.630Z,2.13
2018-06-24T11:24:56.344Z,2.57
2018-06-24T11:27:26.648Z,2.40
2018-06-24T11:29:56.142Z,2.33
2018-06-24T11:32:25.615Z,2.03
2018-06-24T11:34:56.109Z,2.40
2018-06-24T11:37:26.148Z,1.43
2018-06-24T11:39:56.638Z,2.63
2018-06-24T11:42:27.003Z,1.73
2018-06-24T11:44:57.652Z,2.27
2018-06-24T11:47:28.052Z,1.80
2018-06-24T11:49:58.166Z,2.30
2018-06-24T11:52:29.860Z,1.47
2018-06-24T11:54:59.221Z,2.10
2018-06-24T11:57:28.577Z,2.13
2018-06-24T11:59:59.219Z,2.33
2018-06-24T12:02:28.485Z,1.80
2018-06-24T12:04:58.199Z,1.40
2018-06-24T12:07:29.364Z,1.83
2018-06-24T12:09:58.942Z,1.53
2018-06-24T12:12:28.938Z,2.37
2018-06-24T12:14:58.452Z,1.97
2018-06-24T12:17:28.313Z,1.47
2018-06-24T12:19:57.655Z,1.73
2018-06-24T12:22:27.050Z,1.80
2018-06-24T12:24:56.595Z,1.33
2018-06-24T12:27:27.326Z,1.60
2018-06-24T12:29:56.696Z,1.77
2018-06-24T12:32:28.030Z,1.90
2018-06-24T12:34:57.592Z,1.70
2018-06-24T12:37:27.082Z,1.77
2018-06-24T12:39:56.616Z,1.77
2018-06-24T12:42:28.249Z,1.60
2018-06-24T12:44:57.887Z,2.23
2018-06-24T12:47:27.304Z,1.50
2018-06-24T12:49:58.866Z,2.30
2018-06-24T12:52:28.404Z,1.60
2018-06-24T12:54:58.564Z,1.80
2018-06-24T12:57:27.948Z,1.87
2018-06-24T12:59:57.759Z,1.90
2018-06-24T13:02:27.206Z,1.47
2018-06-24T13:04:56.821Z,1.77
2018-06-24T13:07:27.657Z,1.60
2018-06-24T13:09:58.181Z,1.37
2018-06-24T13:12:27.691Z,1.37
2018-06-24T13:14:57.236Z,1.43
2018-06-24T13:17:27.402Z,1.20
2018-06-24T13:19:56.736Z,1.30
2018-06-24T13:22:26.121Z,1.17
2018-06-24T13:24:55.938Z,1.50
2018-06-24T13:27:26.059Z,1.57
2018-06-24T13:29:55.818Z,1.10
2018-06-24T13:32:27.641Z,1.30
2018-06-24T13:34:56.961Z,1.23
2018-06-24T13:37:26.489Z,1.27
2018-06-24T13:39:56.930Z,1.63
2018-06-24T13:42:26.938Z,1.53
2018-06-24T13:44:56.468Z,1.73
2018-06-24T13:47:26.314Z,1.50
2018-06-24T13:49:56.049Z,1.23
2018-06-24T13:52:26.206Z,1.33
2018-06-24T13:54:55.687Z,1.50
2018-06-24T13:57:25.220Z,1.13
2018-06-24T13:59:58.175Z,1.40
2018-06-24T14:02:27.638Z,1.40
2018-06-24T14:04:57.148Z,1.63
2018-06-24T14:07:26.388Z,1.30
2018-06-24T14:09:55.965Z,1.23
2018-06-24T14:12:26.532Z,1.47
2018-06-24T14:14:55.626Z,1.43
2018-06-24T14:17:24.805Z,0.93
2018-06-24T14:19:54.164Z,1.17
2018-06-24T14:22:23.187Z,1.90
2018-06-24T14:24:52.566Z,1.43
2018-06-24T14:27:23.487Z,1.57
2018-06-24T14:29:52.796Z,1.23
2018-06-24T14:32:22.241Z,1.53
2018-06-24T14:34:52.752Z,1.10
2018-06-24T14:37:22.279Z,1.10
2018-06-24T14:39:51.677Z,1.33
2018-06-24T14:42:21.164Z,1.67
2018-06-24T14:44:50.687Z,0.97
2018-06-24T14:47:20.229Z,1.60
2018-06-24T14:49:49.753Z,1.03
2018-06-24T14:52:19.122Z,0.90
2018-06-24T14:54:50.444Z,1.20
2018-06-24T14:57:20.341Z,0.97
2018-06-24T14:59:49.778Z,1.20
2018-06-24T15:02:19.071Z,1.30
2018-06-24T15:04:48.914Z,1.33
2018-06-24T15:07:18.876Z,1.33
2018-06-24T15:09:50.627Z,1.63
2018-06-24T15:12:20.053Z,1.30
2018-06-24T15:14:51.168Z,1.50
2018-06-24T15:17:20.674Z,1.07
2018-06-24T15:19:49.958Z,0.97
2018-06-24T15:22:19.338Z,1.40
2018-06-24T15:24:49.185Z,1.57
2018-06-24T15:27:18.637Z,1.33
2018-06-24T15:29:49.424Z,1.63
2018-06-24T15:32:18.808Z,1.27
2018-06-24T15:34:49.556Z,1.10
2018-06-24T15:37:19.155Z,1.60
2018-06-24T15:39:48.554Z,1.47
2018-06-24T15:42:19.982Z,1.23
2018-06-24T15:44:50.759Z,0.77
2018-06-24T15:47:23.406Z,0.97
2018-06-24T15:49:53.921Z,1.10
2018-06-24T15:52:24.331Z,1.13
2018-06-24T15:54:54.672Z,1.20
2018-06-24T15:57:25.041Z,1.13
2018-06-24T15:59:55.118Z,1.37
2018-06-24T16:02:24.653Z,0.93
2018-06-24T16:04:54.082Z,1.00
2018-06-24T16:07:24.620Z,1.23
2018-06-24T16:09:54.155Z,2.00
2018-06-24T16:12:24.112Z,1.70
2018-06-24T16:14:53.857Z,1.23
2018-06-24T16:17:23.256Z,1.83
2018-06-24T16:19:52.718Z,2.40
2018-06-24T16:22:22.163Z,1.83
2018-06-24T16:24:54.041Z,2.30
2018-06-24T16:27:24.060Z,2.43
2018-06-24T16:29:54.551Z,1.50
2018-06-24T16:32:25.678Z,1.97
2018-06-24T16:34:57.081Z,2.40
2018-06-24T16:37:26.555Z,1.80
2018-06-24T16:39:56.120Z,1.47
2018-06-24T16:42:25.697Z,2.00
2018-06-24T16:44:55.350Z,2.10
2018-06-24T16:47:25.491Z,1.70
2018-06-24T16:49:55.937Z,1.23
2018-06-24T16:52:25.916Z,2.20
2018-06-24T16:54:55.696Z,1.80
2018-06-24T16:57:25.054Z,2.80
2018-06-24T16:59:55.170Z,1.93
2018-06-24T17:02:26.924Z,1.97
2018-06-24T17:04:57.246Z,1.60
2018-06-24T17:07:28.299Z,2.10
2018-06-24T17:09:57.844Z,1.97
2018-06-24T17:12:28.572Z,2.07
2018-06-24T17:15:01.686Z,2.07
2018-06-24T17:17:31.121Z,1.73
2018-06-24T17:20:01.074Z,1.97
2018-06-24T17:22:30.288Z,1.57
2018-06-24T17:24:59.601Z,2.33
2018-06-24T17:27:29.671Z,2.20
2018-06-24T17:30:00.016Z,2.20
2018-06-24T17:32:31.101Z,2.53
2018-06-24T17:35:02.061Z,1.90
2018-06-24T17:37:31.767Z,2.27
2018-06-24T17:40:01.835Z,2.33
2018-06-24T17:42:31.507Z,2.50
2018-06-24T17:45:02.505Z,2.60
2018-06-24T17:47:32.061Z,2.83
2018-06-24T17:50:01.656Z,2.67
2018-06-24T17:52:31.764Z,2.27
2018-06-24T17:55:01.282Z,2.77
2018-06-24T17:57:30.638Z,2.27
2018-06-24T18:00:00.178Z,3.10
2018-06-24T18:02:29.715Z,2.80
2018-06-24T18:04:59.143Z,3.17
2018-06-24T18:07:29.076Z,2.90
2018-06-24T18:09:59.862Z,2.17
2018-06-24T18:12:30.046Z,2.30
2018-06-24T18:14:59.701Z,2.27
2018-06-24T18:17:29.797Z,2.20
2018-06-24T18:19:59.252Z,3.20
2018-06-24T18:22:29.858Z,2.40
2018-06-24T18:24:59.475Z,3.30
2018-06-24T18:27:31.234Z,2.83
2018-06-24T18:30:00.820Z,3.17
2018-06-24T18:32:32.414Z,2.83
2018-06-24T18:35:02.363Z,2.37
2018-06-24T18:37:33.950Z,2.47
2018-06-24T18:40:04.318Z,2.30
2018-06-24T18:42:35.533Z,2.30
2018-06-24T18:45:05.041Z,1.93
2018-06-24T18:47:35.416Z,2.30
2018-06-24T18:50:05.252Z,2.50
2018-06-24T18:52:35.609Z,1.80
2018-06-24T18:55:06.313Z,1.90
2018-06-24T18:57:36.859Z,2.50
2018-06-24T19:00:10.694Z,2.40
2018-06-24T19:02:40.675Z,2.00
2018-06-24T19:05:11.706Z,2.13
2018-06-24T19:07:42.203Z,2.80
2018-06-24T19:10:12.139Z,2.80
2018-06-24T19:12:41.896Z,2.40
2018-06-24T19:15:13.915Z,2.30
2018-06-24T19:17:44.037Z,3.30
2018-06-24T19:20:15.532Z,2.43
2018-06-24T19:22:45.950Z,2.67
2018-06-24T19:25:15.544Z,1.93
2018-06-24T19:27:47.444Z,2.33
2018-06-24T19:30:17.420Z,2.63
2018-06-24T19:32:47.577Z,2.17
2018-06-24T19:35:18.285Z,2.67
2018-06-24T19:37:49.498Z,2.90
2018-06-24T19:40:20.139Z,2.27
2018-06-24T19:42:51.229Z,2.90
2018-06-24T19:45:21.677Z,2.93
2018-06-24T19:47:53.036Z,2.97
2018-06-24T19:50:23.309Z,2.90
2018-06-24T19:52:53.120Z,2.80
2018-06-24T19:55:23.118Z,3.10
2018-06-24T19:57:53.316Z,2.90
2018-06-24T20:00:23.135Z,2.20
2018-06-24T20:02:52.864Z,2.10
2018-06-24T20:05:23.571Z,3.03
2018-06-24T20:07:53.041Z,2.60
2018-06-24T20:10:22.874Z,2.40
2018-06-24T20:12:52.457Z,3.27
2018-06-24T20:15:22.255Z,3.10
2018-06-24T20:17:53.133Z,3.20
2018-06-24T20:20:23.025Z,3.10
2018-06-24T20:22:52.470Z,3.40
2018-06-24T20:25:22.192Z,2.97
2018-06-24T20:27:52.148Z,2.43
2018-06-24T20:30:21.436Z,2.73
2018-06-24T20:32:50.957Z,2.40
2018-06-24T20:35:21.577Z,2.90
2018-06-24T20:37:52.298Z,2.50
2018-06-24T20:40:22.460Z,2.80
2018-06-24T20:42:51.777Z,2.23
2018-06-24T20:45:21.650Z,3.63
2018-06-24T20:47:51.035Z,3.30
2018-06-24T20:50:22.674Z,3.83
2018-06-24T20:52:53.188Z,3.77
2018-06-24T20:55:22.645Z,3.50
2018-06-24T20:57:52.608Z,3.40
2018-06-24T21:00:22.169Z,2.50
2018-06-24T21:02:51.661Z,3.20
2018-06-24T21:05:21.727Z,3.60
2018-06-24T21:07:51.258Z,3.00
2018-06-24T21:10:21.331Z,4.53
2018-06-24T21:12:50.891Z,4.47
2018-06-24T21:15:20.425Z,3.67
2018-06-24T21:17:50.160Z,3.93
2018-06-24T21:20:19.610Z,3.17
2018-06-24T21:22:50.807Z,3.40
2018-06-24T21:25:21.197Z,3.47
2018-06-24T21:27:51.501Z,3.13
2018-06-24T21:30:21.916Z,4.13
2018-06-24T21:32:52.470Z,4.00
2018-06-24T21:35:21.871Z,4.50
2018-06-24T21:37:51.005Z,3.50
2018-06-24T21:40:21.193Z,4.70
2018-06-24T21:42:53.046Z,3.80
2018-06-24T21:45:22.062Z,3.40
2018-06-24T21:47:51.115Z,3.27
2018-06-24T21:50:21.042Z,3.50
2018-06-24T21:52:50.081Z,4.20
2018-06-24T21:55:19.207Z,4.50
2018-06-24T21:57:50.682Z,4.00
2018-06-24T22:00:20.758Z,3.70
2018-06-24T22:02:49.770Z,3.20
2018-06-24T22:05:19.188Z,3.20
2018-06-24T22:07:49.090Z,3.20
2018-06-24T22:10:18.078Z,3.83
2018-06-24T22:12:47.895Z,4.10
2018-06-24T22:15:16.865Z,3.60
2018-06-24T22:17:45.883Z,5.57
2018-06-24T22:20:14.901Z,4.20
2018-06-24T22:22:44.563Z,3.70
2018-06-24T22:25:13.631Z,4.30
2018-06-24T22:27:42.737Z,4.37
2018-06-24T22:30:13.210Z,3.13
2018-06-24T22:32:42.275Z,4.10
2018-06-24T22:35:11.308Z,3.70
2018-06-24T22:37:42.140Z,4.03
2018-06-24T22:40:11.247Z,3.90
2018-06-24T22:42:42.368Z,3.47
2018-06-24T22:45:12.255Z,3.63
2018-06-24T22:47:42.353Z,3.20
2018-06-24T22:50:11.400Z,3.23
2018-06-24T22:52:40.390Z,4.20
2018-06-24T22:55:12.018Z,3.70
2018-06-24T22:57:41.645Z,4.13
2018-06-24T23:00:14.034Z,3.83
2018-06-24T23:02:44.328Z,3.97
2018-06-24T23:05:14.096Z,4.10
2018-06-24T23:07:46.024Z,3.60
2018-06-24T23:10:15.451Z,3.17
2018-06-24T23:12:44.537Z,4.80
2018-06-24T23:15:14.209Z,3.27
2018-06-24T23:17:43.196Z,3.40
2018-06-24T23:20:14.088Z,3.80
2018-06-24T23:22:43.275Z,3.70
2018-06-24T23:25:12.835Z,4.50
2018-06-24T23:27:42.052Z,5.50
2018-06-24T23:30:11.116Z,5.60
2018-06-24T23:32:40.131Z,6.77
2018-06-24T23:35:09.261Z,6.57
2018-06-24T23:37:38.632Z,5.40
2018-06-24T23:40:08.016Z,4.40
2018-06-24T23:42:38.878Z,4.10
2018-06-24T23:45:08.036Z,4.50
2018-06-24T23:47:37.491Z,4.20
2018-06-24T23:50:07.132Z,3.90
2018-06-24T23:52:37.278Z,3.83
2018-06-24T23:55:06.959Z,4.20
2018-06-24T23:57:36.335Z,4.33
